Shafter, Texas
Current Conditions -  °F | °C
As of 3:15 PM on Friday 24 Oct 2014 (Local Time) from KPRS Reporting Station
Clear Clear  
Wind Chill: 84°   Ceiling: Unl
Heat Index: 84°   Visibility: 10mi
Dew Point: 51°   Wind: 7mph
Humidity: 32%   Direction: 230°SW
Pressure: 30.14"   Gusts: NA
Location:  29.82°N, 104.3°W
Report Text: KPRS 242015Z AUTO 23006KT 10SM CLR 29/11 A3014 RMK AO2 T02900107
Loading
Personal Weather Stations






























Interactive Weather Map
Tropical Storm Tracking
New forecast layout! Learn more

10-Day Weather Forecast

Advertisements
Track Severe Weather on mobile